Home > Products > Valid Products > MTR

000
SAUS43 KDDC 302300
MTRP28
METAR KP28 302256Z AUTO 05013KT 21/18 A3008 RMK AO1 SLP176 T02110183
$





000
SAUS43 KDDC 302202 COR
MTRP28
METAR KP28 302156Z AUTO 06014G18KT 22/19 A3009 RMK AO1 SLP177
T02170189 $





000
SAUS43 KDDC 302100
MTRP28
METAR KP28 302056Z AUTO 05011KT 21/19 A3009 RMK AO1 SLP178 6////
T02110194 $





000
SAUS43 KDDC 302001
MTRP28
METAR KP28 301957Z AUTO 05011KT 20/19 A3007 RMK AO1 SLP172 T02000189
$





000
SAUS43 KDDC 301900
MTRP28
METAR KP28 301856Z AUTO 05007KT 19/19 A3008 RMK AO1 SLP175 P0024
T01940189





000
SAUS43 KDDC 301800
MTRP28
METAR KP28 301756Z AUTO 07010KT 19/18 A3008 RMK AO1 SLP174 P0017
60172 T01890183 10200 20183 50000





000
SAUS43 KDDC 301700
MTRP28
METAR KP28 301656Z AUTO 07008KT 19/19 A3008 RMK AO1 SLP175 P0025
T01940189





000
SAUS43 KDDC 301600
MTRP28
METAR KP28 301556Z AUTO 07007KT 18/18 A3008 RMK AO1 SLP175 P0030
T01830183





000
SAUS43 KDDC 301500
MTRP28
METAR KP28 301456Z AUTO 08006KT 19/18 A3007 RMK AO1 SLP172 P0032
60100 T01890183 50004





000
SAUS43 KDDC 301400
MTRP28
METAR KP28 301356Z AUTO 13008KT 19/18 A3008 RMK AO1 SLP174 P0027
T01890183





000
SAUS43 KDDC 301300
MTRP28
METAR KP28 301256Z AUTO 00000KT 19/19 A3008 RMK AO1 SLP172 P0041
T01940189





000
SAUS43 KDDC 301200
MTRP28
METAR KP28 301156Z AUTO 09005KT 19/19 A3006 RMK AO1 SLP166 P0008
60022 70022 T01940189 10222 20194 55001





000
SAUS43 KDDC 301100
MTRP28
METAR KP28 301056Z AUTO 00000KT 20/19 A3006 RMK AO1 SLP165 P0001
T02000189





000
SAUS43 KDDC 301000
MTRP28
METAR KP28 300956Z AUTO 07005KT 20/19 A3006 RMK AO1 SLP163 T02000189





000
SAUS43 KDDC 300900
MTRP28
METAR KP28 300856Z AUTO 13003KT 20/19 A3007 RMK AO1 SLP165 P0011
60013 T02000194 58007





000
SAUS43 KDDC 300800
MTRP28
METAR KP28 300756Z AUTO 20006KT 21/19 A3008 RMK AO1 SLP171 P0002
T02060189





000
SAUS43 KDDC 300700
MTRP28
METAR KP28 300656Z AUTO 00000KT 22/18 A3008 RMK AO1 SLP169 T02170178





000
SAUS43 KDDC 300600
MTRP28
METAR KP28 300556Z AUTO 18003KT 22/17 A3009 RMK AO1 SLP172 T02220172
10267 20211 403170167 50002





000
SAUS43 KDDC 300500
MTRP28
METAR KP28 300456Z AUTO 19004KT 22/17 A3010 RMK AO1 SLP176 T02170172





000
SAUS43 KDDC 300400
MTRP28
METAR KP28 300356Z AUTO 00000KT 23/17 A3009 RMK AO1 SLP174 T02330172





000
SAUS43 KDDC 300300
MTRP28
METAR KP28 300256Z AUTO 00000KT 23/17 A3008 RMK AO1 SLP171 T02330172
53005





000
SAUS43 KDDC 300200
MTRP28
METAR KP28 300156Z AUTO 23004KT 23/17 A3006 RMK AO1 SLP167 T02330167





000
SAUS43 KDDC 300100
MTRP28
METAR KP28 300056Z AUTO 23006KT 26/16 A3006 RMK AO1 SLP167 T02560161





000
SAUS43 KDDC 300000
MTRP28
METAR KP28 292356Z AUTO 23010KT 27/16 A3007 RMK AO1 SLP168 T02670156
10317 20267 58010





000
SAUS43 KDDC 292302 COR
MTRP28
METAR KP28 292256Z AUTO 22013KT 28/14 A3008 RMK AO1 SLP172 T02830139





000
SAUS43 KDDC 292200
MTRP28
METAR KP28 292156Z AUTO 25013KT 30/17 A3009 RMK AO1 SLP176 T03000167





000
SAUS43 KDDC 292100
MTRP28
METAR KP28 292056Z AUTO 21011G17KT 31/15 A3010 RMK AO1 SLP177
T03060150 58018





000
SAUS43 KDDC 292000
MTRP28
METAR KP28 291956Z AUTO 23012KT 31/14 A3012 RMK AO1 SLP184 T03060144





000
SAUS43 KDDC 291900
MTRP28
METAR KP28 291856Z AUTO 23004KT 31/16 A3014 RMK AO1 SLP190 T03110156





000
SAUS43 KDDC 291800
MTRP28
METAR KP28 291756Z AUTO 25007KT 30/16 A3015 RMK AO1 SLP194 T03000156
10300 20178 58012





000
SAUS43 KDDC 291700
MTRP28
METAR KP28 291656Z AUTO 00000KT 28/16 A3018 RMK AO1 SLP202 T02830156





000
SAUS43 KDDC 291600
MTRP28
METAR KP28 291556Z AUTO 14006KT 26/16 A3019 RMK AO1 SLP209 T02560156





000
SAUS43 KDDC 291500
MTRP28
METAR KP28 291456Z AUTO 14005KT 24/16 A3019 RMK AO1 SLP209 T02390156
51005





000
SAUS43 KDDC 291400
MTRP28
METAR KP28 291356Z AUTO 12006KT 22/15 A3019 RMK AO1 SLP208 T02170150





000
SAUS43 KDDC 291300
MTRP28
METAR KP28 291256Z AUTO 10003KT 20/14 A3018 RMK AO1 SLP206 T02000144





000
SAUS43 KDDC 291200
MTRP28
METAR KP28 291156Z AUTO 10004KT 18/13 A3017 RMK AO1 SLP203 T01830133
10222 20167 53005





000
SAUS43 KDDC 291100
MTRP28
METAR KP28 291056Z AUTO 06004KT 17/14 A3016 RMK AO1 SLP200 T01720139





000
SAUS43 KDDC 291000
MTRP28
METAR KP28 290956Z AUTO 00000KT 17/16 A3016 RMK AO1 SLP198 T01670156





000
SAUS43 KDDC 290900
MTRP28
METAR KP28 290856Z AUTO 00000KT 18/15 A3016 RMK AO1 SLP198 T01780150
58011





000
SAUS43 KDDC 290800
MTRP28
METAR KP28 290756Z AUTO 00000KT 18/16 A3017 RMK AO1 SLP202 T01830161





000
SAUS43 KDDC 290700
MTRP28
METAR KP28 290656Z AUTO 02003KT 19/16 A3018 RMK AO1 SLP206 T01890161





000
SAUS43 KDDC 290558
MTRP28
METAR KP28 290556Z AUTO 00000KT 22/16 A3019 RMK AO1 SLP209 T02170161
10306 20200 403170172 51006





000
SAUS43 KDDC 290457
MTRP28
METAR KP28 290456Z AUTO 10004KT 24/14 A3019 RMK AO1 SLP208 T02390144





000
SAUS43 KDDC 290358
MTRP28
METAR KP28 290356Z AUTO 01003KT 22/17 A3019 RMK AO1 SLP208 T02170172





000
SAUS43 KDDC 290258
MTRP28
METAR KP28 290256Z AUTO 02003KT 25/16 A3018 RMK AO1 SLP204 T02500156
53007





000
SAUS43 KDDC 290157
MTRP28
METAR KP28 290156Z AUTO 00000KT 27/16 A3016 RMK AO1 SLP198 T02670156





000
SAUS43 KDDC 290058
MTRP28
METAR KP28 290056Z AUTO 29003KT 28/16 A3015 RMK AO1 SLP196 T02780156





000
SAUS43 KDDC 282358
MTRP28
METAR KP28 282356Z AUTO 23004KT 30/14 A3015 RMK AO1 SLP196 T03000139
10317 20278 56020





000
SAUS43 KDDC 282257
MTRP28
METAR KP28 282256Z AUTO 35003KT 31/13 A3017 RMK AO1 SLP203 T03110133





000
SAUS43 KDDC 282157
MTRP28
METAR KP28 282156Z AUTO 16004KT 31/13 A3019 RMK AO1 SLP208 T03110133





000
SAUS43 KDDC 282058
MTRP28
METAR KP28 282056Z AUTO 20003KT 29/14 A3021 RMK AO1 SLP216 T02940139
56020





000
SAUS43 KDDC 281958
MTRP28
METAR KP28 281956Z AUTO 30004KT 31/16 A3022 RMK AO1 SLP218 T03110161





000
SAUS43 KDDC 281858
MTRP28
METAR KP28 281856Z AUTO VRB04KT 29/15 A3025 RMK AO1 SLP228 T02890150





000
SAUS43 KDDC 281758
MTRP28
METAR KP28 281756Z AUTO VRB03KT 28/16 A3028 RMK AO1 SLP238 T02780156
10289 20178 58015





000
SAUS43 KDDC 281657
MTRP28
METAR KP28 281656Z AUTO 00000KT 27/15 A3029 RMK AO1 SLP243 T02720150





000
SAUS43 KDDC 281557
MTRP28
METAR KP28 281556Z AUTO 02003KT 26/16 A3031 RMK AO1 SLP249 T02610156





000
SAUS43 KDDC 281458
MTRP28
METAR KP28 281456Z AUTO 33004KT 23/16 A3032 RMK AO1 SLP254 T02330161
51027





000
SAUS43 KDDC 281358
MTRP28
METAR KP28 281356Z AUTO 00000KT 24/16 A3030 RMK AO1 SLP246 T02390161





000
SAUS43 KDDC 281258
MTRP28
METAR KP28 281256Z AUTO 00000KT 20/16 A3027 RMK AO1 SLP234 T02000161





000
SAUS43 KDDC 281158
MTRP28
METAR KP28 281156Z AUTO 00000KT 18/15 A3024 RMK AO1 SLP225 70006
T01780150 10222 20172 53017





000
SAUS43 KDDC 281057
MTRP28
METAR KP28 281056Z AUTO 00000KT 19/15 A3021 RMK AO1 SLP216 T01940150





000
SAUS43 KDDC 280958
MTRP28
METAR KP28 280956Z AUTO 00000KT 20/14 A3019 RMK AO1 SLP208 T02000144





000
SAUS43 KDDC 280858
MTRP28
METAR KP28 280856Z AUTO 09003KT 21/13 A3019 RMK AO1 SLP207 T02110133
50000





000
SAUS43 KDDC 280757
MTRP28
METAR KP28 280756Z AUTO 08004KT 21/14 A3019 RMK AO1 SLP207 T02110144





000
SAUS43 KDDC 280658
MTRP28
METAR KP28 280656Z AUTO 00000KT 22/13 A3019 RMK AO1 SLP209 T02220133





000
SAUS43 KDDC 280557
MTRP28
METAR KP28 280556Z AUTO 00000KT 21/18 A3019 RMK AO1 SLP209 T02060178
10311 20200 403170200 51010





000
SAUS43 KDDC 280458
MTRP28
METAR KP28 280456Z AUTO 36004KT 21/19 A3018 RMK AO1 SLP206 T02060189





000
SAUS43 KDDC 280358
MTRP28
METAR KP28 280356Z AUTO 01003KT 22/19 A3017 RMK AO1 SLP204 T02220194





000
SAUS43 KDDC 280257
MTRP28
METAR KP28 280256Z AUTO 35003KT 24/20 A3016 RMK AO1 SLP196 T02440200
53013





000
SAUS43 KDDC 280158
MTRP28
METAR KP28 280156Z AUTO 00000KT 27/20 A3013 RMK AO1 SLP187 T02670200





000
SAUS43 KDDC 280058
MTRP28
METAR KP28 280056Z AUTO 00000KT 29/16 A3012 RMK AO1 SLP179 T02940161





000
SAUS43 KDDC 272357
MTRP28
METAR KP28 272356Z AUTO 06009KT 31/15 A3012 RMK AO1 SLP179 60003
T03110150 10317 20233 56009





    US Dept of Commerce
    National Oceanic and Atmospheric Administration
    National Weather Service
    1325 East West Highway
    Silver Spring, MD 20910
    Page Author: NWS Internet Services Team
Disclaimer
Information Quality
Credits
Glossary
Privacy Policy
Freedom of Information Act (FOIA)
About Us
Career Opportunities